createdAt,value
2022-12-08T00:01:22.528Z,685.00
2022-12-08T00:06:22.523Z,685.00
2022-12-08T00:11:22.535Z,701.30
2022-12-08T00:16:22.538Z,701.30
2022-12-08T00:21:22.545Z,704.10
2022-12-08T00:26:22.585Z,704.10
2022-12-08T00:31:22.573Z,719.40
2022-12-08T00:36:22.573Z,719.40
2022-12-08T00:41:22.713Z,724.30
2022-12-08T00:46:22.617Z,724.30
2022-12-08T00:51:22.948Z,692.30
2022-12-08T00:56:22.522Z,692.30
2022-12-08T01:01:22.820Z,725.70
2022-12-08T01:06:22.800Z,725.70
2022-12-08T01:11:22.543Z,712.60
2022-12-08T01:16:22.836Z,712.60
2022-12-08T01:21:22.601Z,679.00
2022-12-08T01:31:23.241Z,709.90
2022-12-08T01:36:22.660Z,709.90
2022-12-08T01:41:22.822Z,689.80
2022-12-08T01:46:22.713Z,689.80
2022-12-08T01:51:22.828Z,686.50
2022-12-08T02:01:22.865Z,693.60
2022-12-08T02:06:22.580Z,693.60
2022-12-08T02:11:22.737Z,648.00
2022-12-08T02:16:22.940Z,648.00
2022-12-08T02:21:22.541Z,739.90
2022-12-08T02:26:22.865Z,739.90
2022-12-08T02:31:22.729Z,719.70
2022-12-08T02:36:22.837Z,719.70
2022-12-08T02:41:22.629Z,705.90
2022-12-08T02:46:22.897Z,705.90
2022-12-08T02:51:22.594Z,708.80
2022-12-08T02:56:22.574Z,708.80
2022-12-08T03:01:22.653Z,707.10
2022-12-08T03:06:22.571Z,707.10
2022-12-08T03:11:22.597Z,710.50
2022-12-08T03:16:22.686Z,710.50
2022-12-08T03:21:22.837Z,727.20
2022-12-08T03:26:22.646Z,727.20
2022-12-08T03:31:22.726Z,714.60
2022-12-08T03:36:22.665Z,714.60
2022-12-08T03:41:22.783Z,744.10
2022-12-08T03:51:22.720Z,731.00
2022-12-08T03:56:22.610Z,731.00
2022-12-08T04:01:23.112Z,743.60
2022-12-08T04:11:22.970Z,734.40
2022-12-08T04:16:22.745Z,734.40
2022-12-08T04:21:22.668Z,626.80
2022-12-08T04:31:22.978Z,620.40
2022-12-08T04:36:22.792Z,620.40
2022-12-08T04:41:22.624Z,620.30
2022-12-08T04:46:22.702Z,620.30
2022-12-08T04:51:22.634Z,631.60
2022-12-08T04:56:22.714Z,631.60
2022-12-08T05:01:22.934Z,610.50
2022-12-08T05:06:22.699Z,610.50
2022-12-08T05:11:22.836Z,597.80
2022-12-08T05:16:22.703Z,597.80
2022-12-08T05:21:22.784Z,617.80
2022-12-08T05:26:22.618Z,617.80
2022-12-08T05:31:22.883Z,649.80
2022-12-08T05:36:22.639Z,649.80
2022-12-08T05:41:22.699Z,613.60
2022-12-08T05:46:22.710Z,613.60
2022-12-08T05:51:22.723Z,614.40
2022-12-08T05:56:22.669Z,614.40
2022-12-08T06:01:22.614Z,613.20
2022-12-08T06:06:22.685Z,613.20
2022-12-08T06:11:22.632Z,638.20
2022-12-08T06:16:22.691Z,638.20
2022-12-08T06:21:22.671Z,625.80
2022-12-08T06:26:22.744Z,625.80
2022-12-08T06:31:22.922Z,641.20
2022-12-08T06:41:22.883Z,608.80
2022-12-08T06:46:22.755Z,608.80
2022-12-08T06:51:22.842Z,625.80
2022-12-08T06:56:22.720Z,625.80
2022-12-08T07:01:23.006Z,584.30
2022-12-08T07:06:22.966Z,584.30
2022-12-08T07:11:22.960Z,593.50
2022-12-08T07:16:22.930Z,593.50
2022-12-08T07:21:22.676Z,603.20
2022-12-08T07:26:22.670Z,603.20
2022-12-08T07:31:22.816Z,606.30
2022-12-08T07:36:22.878Z,606.30
2022-12-08T07:41:23.609Z,610.60
2022-12-08T07:46:22.892Z,610.60
2022-12-08T07:51:23.238Z,618.50
2022-12-08T07:56:22.765Z,618.50
2022-12-08T08:01:22.826Z,614.50
2022-12-08T08:06:22.692Z,614.50
2022-12-08T08:11:22.904Z,616.60
2022-12-08T08:16:22.806Z,616.60
2022-12-08T08:21:44.505Z,641.10
2022-12-08T08:26:22.725Z,641.10
2022-12-08T08:31:22.935Z,649.70
2022-12-08T08:36:22.840Z,649.70
2022-12-08T08:41:22.740Z,660.90
2022-12-08T08:46:22.799Z,660.90
2022-12-08T08:51:22.718Z,663.70
2022-12-08T08:56:22.721Z,663.70
2022-12-08T09:01:22.732Z,667.90
2022-12-08T09:06:22.904Z,667.90
2022-12-08T09:11:23.054Z,660.90
2022-12-08T09:16:22.819Z,660.90
2022-12-08T09:21:23.291Z,654.90
2022-12-08T09:26:22.830Z,654.90
2022-12-08T09:31:23.067Z,645.70
2022-12-08T09:36:22.696Z,645.70
2022-12-08T09:41:23.109Z,652.80
2022-12-08T09:46:22.822Z,652.80
2022-12-08T09:51:22.783Z,659.80
2022-12-08T09:56:22.855Z,659.80
2022-12-08T10:01:22.818Z,659.00
2022-12-08T10:06:23.048Z,659.00
2022-12-08T10:11:22.881Z,671.70
2022-12-08T10:16:29.304Z,671.70
2022-12-08T10:21:22.851Z,678.60
2022-12-08T10:26:22.765Z,678.60
2022-12-08T10:31:22.902Z,666.60
2022-12-08T10:36:22.939Z,666.60
2022-12-08T10:41:22.797Z,667.70
2022-12-08T10:46:22.912Z,667.70
2022-12-08T10:51:22.737Z,679.50
2022-12-08T10:56:22.897Z,679.50
2022-12-08T11:01:22.829Z,682.50
2022-12-08T11:06:22.847Z,682.50
2022-12-08T11:11:27.692Z,682.20
2022-12-08T11:16:22.871Z,682.20
2022-12-08T11:21:22.962Z,687.10
2022-12-08T11:26:22.809Z,687.10
2022-12-08T11:31:22.860Z,697.70
2022-12-08T11:36:22.807Z,697.70
2022-12-08T11:41:22.881Z,698.00
2022-12-08T11:46:22.887Z,698.00
2022-12-08T11:51:22.891Z,708.50
2022-12-08T11:56:22.770Z,708.50
2022-12-08T12:01:22.815Z,710.10
2022-12-08T12:11:22.830Z,714.50
2022-12-08T12:16:22.946Z,714.50
2022-12-08T12:21:23.085Z,723.50
2022-12-08T12:26:22.918Z,723.50
2022-12-08T12:31:23.083Z,710.20
2022-12-08T12:36:22.757Z,710.20
2022-12-08T12:41:25.499Z,719.30
2022-12-08T12:46:22.912Z,719.30
2022-12-08T12:51:22.996Z,694.20
2022-12-08T12:56:22.831Z,694.20
2022-12-08T13:01:23.033Z,705.30
2022-12-08T13:06:23.134Z,705.30
2022-12-08T13:11:22.928Z,689.70
2022-12-08T13:16:22.788Z,689.70
2022-12-08T13:21:22.931Z,685.80
2022-12-08T13:26:23.032Z,685.80
2022-12-08T13:31:22.917Z,706.20
2022-12-08T13:36:22.840Z,706.20
2022-12-08T13:41:22.833Z,712.80
2022-12-08T13:47:09.309Z,712.80
2022-12-08T13:53:10.339Z,691.50
2022-12-08T13:57:02.398Z,691.50
2022-12-08T14:01:23.151Z,708.20
2022-12-08T14:06:22.861Z,708.20
2022-12-08T14:11:22.834Z,683.40
2022-12-08T14:16:23.001Z,683.40
2022-12-08T14:21:23.029Z,704.60
2022-12-08T14:26:22.894Z,704.60
2022-12-08T14:31:23.033Z,722.90
2022-12-08T14:36:23.249Z,722.90
2022-12-08T14:46:23.288Z,713.50
2022-12-08T14:51:22.821Z,714.20
2022-12-08T14:56:23.096Z,714.20
2022-12-08T15:01:22.894Z,705.50
2022-12-08T15:06:22.885Z,705.50
2022-12-08T15:11:22.903Z,673.30
2022-12-08T15:16:22.998Z,673.30
2022-12-08T15:21:23.192Z,684.40
2022-12-08T15:26:22.889Z,684.40
2022-12-08T15:36:23.273Z,700.70
2022-12-08T15:41:23.146Z,710.30
2022-12-08T15:46:22.983Z,710.30
2022-12-08T15:51:22.904Z,698.40
2022-12-08T16:12:03.926Z,702.30
2022-12-08T16:16:23.182Z,702.30
2022-12-08T16:21:53.278Z,702.30
2022-12-08T16:27:35.219Z,702.30
2022-12-08T16:31:23.481Z,676.10
2022-12-08T16:36:22.881Z,676.10
2022-12-08T16:41:22.911Z,681.60
2022-12-08T16:46:22.912Z,681.60
2022-12-08T16:51:26.804Z,726.80
2022-12-08T16:56:28.743Z,726.80
2022-12-08T17:01:22.975Z,745.90
2022-12-08T17:06:23.083Z,745.90
2022-12-08T17:11:23.170Z,759.80
2022-12-08T17:16:23.048Z,759.80
2022-12-08T17:21:22.959Z,760.20
2022-12-08T17:26:22.908Z,760.20
2022-12-08T17:31:27.787Z,759.60
2022-12-08T17:36:23.345Z,759.60
2022-12-08T17:41:23.063Z,756.70
2022-12-08T17:46:23.014Z,756.70
2022-12-08T17:51:23.045Z,756.10
2022-12-08T17:56:23.205Z,756.10
2022-12-08T18:01:23.452Z,760.10
2022-12-08T18:06:25.726Z,760.10
2022-12-08T18:11:23.225Z,739.40
2022-12-08T18:16:23.216Z,739.40
2022-12-08T18:21:23.549Z,725.80
2022-12-08T18:26:23.218Z,725.80
2022-12-08T18:36:23.970Z,758.50
2022-12-08T18:41:22.956Z,684.40
2022-12-08T18:46:23.358Z,684.40
2022-12-08T18:51:23.415Z,696.20
2022-12-08T18:56:23.092Z,696.20
2022-12-08T19:01:24.477Z,765.70
2022-12-08T19:06:22.952Z,765.70
2022-12-08T19:11:23.040Z,632.10
2022-12-08T19:16:23.285Z,632.10
2022-12-08T19:21:23.110Z,644.10
2022-12-08T19:26:24.464Z,644.10
2022-12-08T19:31:23.416Z,643.20
2022-12-08T19:36:23.190Z,643.20
2022-12-08T19:41:23.255Z,622.00
2022-12-08T19:46:23.228Z,622.00
2022-12-08T19:51:24.275Z,636.40
2022-12-08T19:56:23.893Z,636.40
2022-12-08T20:01:23.402Z,623.60
2022-12-08T20:06:23.371Z,623.60
2022-12-08T20:11:23.198Z,635.50
2022-12-08T20:16:23.425Z,635.50
2022-12-08T20:21:23.684Z,637.90
2022-12-08T20:26:23.074Z,637.90
2022-12-08T20:31:23.463Z,644.00
2022-12-08T20:36:23.097Z,644.00
2022-12-08T20:41:24.067Z,626.10
2022-12-08T20:46:24.268Z,626.10
2022-12-08T20:51:28.441Z,616.10
2022-12-08T20:56:23.650Z,616.10
2022-12-08T21:06:23.330Z,615.40
2022-12-08T21:11:23.063Z,615.80
2022-12-08T21:16:23.392Z,615.80
2022-12-08T21:21:23.243Z,613.90
2022-12-08T21:26:23.257Z,613.90
2022-12-08T21:31:23.633Z,613.60
2022-12-08T21:36:23.310Z,613.60
2022-12-08T21:41:23.272Z,619.60
2022-12-08T21:46:23.093Z,619.60
2022-12-08T21:51:23.105Z,643.60
2022-12-08T21:56:23.484Z,643.60
2022-12-08T22:01:23.131Z,635.20
2022-12-08T22:06:23.204Z,635.20
2022-12-08T22:11:23.065Z,629.40
2022-12-08T22:16:23.397Z,629.40
2022-12-08T22:21:23.102Z,626.70
2022-12-08T22:26:23.087Z,626.70
2022-12-08T22:31:23.434Z,609.40
2022-12-08T22:36:23.373Z,609.40
2022-12-08T22:41:23.305Z,610.30
2022-12-08T22:46:23.417Z,610.30
2022-12-08T22:51:23.115Z,618.80
2022-12-08T22:56:23.234Z,618.80
2022-12-08T23:01:23.554Z,624.30
2022-12-08T23:06:23.489Z,624.30
2022-12-08T23:11:23.504Z,623.80
2022-12-08T23:16:23.249Z,623.80
2022-12-08T23:21:23.412Z,611.50
2022-12-08T23:26:23.034Z,611.50
2022-12-08T23:31:23.577Z,621.10
2022-12-08T23:36:23.092Z,621.10
2022-12-08T23:41:23.109Z,618.00
2022-12-08T23:46:23.193Z,618.00
2022-12-08T23:51:23.040Z,619.90
2022-12-08T23:56:29.904Z,619.90
